To NAV CANADA Home Page Login to a new session Search on AWWS site Feedback and Comments Disclaimer Vers la page française équivalente Tips FAQ What's new on the site To the Forecasts and Observations / NOTAM section To "File a Flight Plan" website Publications and other links Update of the User's profile FIC Telephone Numbers My Weather Data Folder Route Weather Data Regional Weather Data Local Weather Data To the Forecasts and Observations / NOTAM section
Request Generated 02/27/2015 at 00:24:28 UTC . Weather information available at that time is displayed.

METAR/TAF

BAKER LAKE/NU    

METAR CYBK 270000Z 15002KT 10SM -SN BKN030 M22/M25 A2982 RMK SC6
SLP099=
METAR CYBK 262300Z 11002KT 15SM -SN FEW030 BKN060 M21/M25 A2982 RMK
SC2SC4 SLP100=
METAR CYBK 262200Z 34008KT 20SM -SN FEW030 BKN060 M21/M25 A2982 RMK
SC1SC6 SLP099=

TAF CYBK 262338Z 2700/2712 VRB03KT P6SM SCT020 BKN060 TEMPO 2700/2709
3SM -SN BKN020 BKN060
BECMG 2704/2706 01008KT
FM270900 31006KT P6SM SCT020 TEMPO 2709/2712 6SM -SN BKN020
RMK NXT FCST BY 270600Z=
Your time UTC time
Weather data provided by Environment Canada and NAV CANADA